Terminal Aerodrome Forecast
Issued by NWS Jacksonville, FL

Home | Current Version | Previous Version | Text Only | Print | Product List | Glossary On
Versions: 1 2 3 4 5 6 7 8 9 10 11 12 13 14 15 16 17 18 19 20 21 22 23 24 25 26 27 28 29 30 31 32 33 34 35 36
000
FTUS42 KJAX 201100
TAFJAX
TAF
KJAX 201120Z 2012/2112 35010KT P6SM -DZ SCT010 BKN015 OVC025
      TEMPO 2012/2016 OVC006
     FM201600 36013G25KT P6SM SCT010 BKN015
     FM210000 01010KT P6SM SCT015 BKN025
     FM210700 36007KT P6SM SCT010 BKN020=

USA.gov is the U.S. government's official web portal to all federal, state and local government web resources and services.